createdAt,value
2024-04-06T00:00:45.785Z,14.33
2024-04-06T00:01:46.161Z,14.33
2024-04-06T00:02:45.729Z,14.33
2024-04-06T00:03:53.062Z,14.33
2024-04-06T00:04:47.216Z,14.33
2024-04-06T00:05:45.687Z,14.33
2024-04-06T00:06:46.052Z,14.33
2024-04-06T00:07:45.624Z,14.33
2024-04-06T00:08:45.639Z,14.33
2024-04-06T00:09:45.684Z,14.33
2024-04-06T00:10:45.595Z,14.33
2024-04-06T00:11:45.995Z,14.32
2024-04-06T00:12:45.591Z,14.32
2024-04-06T00:13:45.567Z,14.32
2024-04-06T00:14:45.612Z,14.32
2024-04-06T00:15:45.585Z,14.30
2024-04-06T00:16:45.522Z,14.32
2024-04-06T00:17:46.507Z,14.32
2024-04-06T00:18:45.476Z,14.30
2024-04-06T00:19:45.524Z,14.30
2024-04-06T00:20:45.505Z,14.29
2024-04-06T00:21:45.478Z,14.30
2024-04-06T00:22:45.871Z,14.30
2024-04-06T00:23:45.454Z,14.28
2024-04-06T00:24:45.453Z,14.30
2024-04-06T00:25:45.462Z,14.28
2024-04-06T00:26:45.437Z,14.28
2024-04-06T00:27:45.856Z,14.28
2024-04-06T00:28:45.375Z,14.28
2024-04-06T00:29:45.413Z,14.25
2024-04-06T00:30:45.335Z,14.25
2024-04-06T00:31:45.370Z,14.25
2024-04-06T00:32:45.320Z,14.23
2024-04-06T00:33:45.744Z,14.23
2024-04-06T00:34:45.259Z,14.23
2024-04-06T00:35:45.294Z,14.22
2024-04-06T00:36:45.300Z,14.22
2024-04-06T00:37:45.976Z,14.22
2024-04-06T00:38:45.253Z,14.20
2024-04-06T00:39:45.653Z,14.18
2024-04-06T00:40:45.233Z,14.17
2024-04-06T00:41:45.252Z,14.17
2024-04-06T00:42:45.238Z,14.17
2024-04-06T00:43:45.145Z,14.15
2024-04-06T00:44:45.594Z,14.15
2024-04-06T00:45:45.429Z,14.15
2024-04-06T00:46:45.135Z,14.14
2024-04-06T00:47:45.149Z,14.14
2024-04-06T00:48:45.149Z,14.12
2024-04-06T00:49:45.535Z,14.11
2024-04-06T00:50:45.129Z,14.10
2024-04-06T00:51:45.112Z,14.10
2024-04-06T00:52:45.077Z,14.08
2024-04-06T00:53:45.134Z,14.05
2024-04-06T00:54:45.475Z,14.05
2024-04-06T00:55:45.018Z,14.05
2024-04-06T00:56:45.059Z,14.03
2024-04-06T00:57:45.022Z,14.00
2024-04-06T00:58:44.999Z,14.04
2024-04-06T00:59:44.984Z,14.03
2024-04-06T01:00:45.432Z,14.00
2024-04-06T01:01:57.110Z,14.00
2024-04-06T01:02:46.436Z,14.00
2024-04-06T01:03:44.876Z,13.99
2024-04-06T01:04:45.006Z,13.99
2024-04-06T01:05:44.912Z,13.96
2024-04-06T01:06:45.323Z,13.99
2024-04-06T01:07:44.880Z,13.97
2024-04-06T01:08:44.834Z,13.96
2024-04-06T01:09:44.821Z,13.96
2024-04-06T01:10:44.910Z,13.96
2024-04-06T01:11:44.804Z,13.95
2024-04-06T01:12:45.270Z,13.95
2024-04-06T01:13:44.788Z,13.95
2024-04-06T01:14:44.775Z,13.93
2024-04-06T01:15:44.792Z,13.92
2024-04-06T01:16:44.722Z,13.92
2024-04-06T01:17:44.743Z,13.90
2024-04-06T01:18:44.694Z,13.90
2024-04-06T01:19:44.736Z,13.89
2024-04-06T01:20:44.676Z,13.89
2024-04-06T01:21:44.745Z,13.87
2024-04-06T01:22:44.684Z,13.86
2024-04-06T01:23:45.150Z,13.87
2024-04-06T01:24:47.317Z,13.87
2024-04-06T01:25:44.628Z,13.87
2024-04-06T01:26:44.816Z,13.86
2024-04-06T01:27:44.703Z,13.86
2024-04-06T01:28:44.594Z,13.85
2024-04-06T01:29:45.024Z,13.83
2024-04-06T01:30:44.554Z,13.81
2024-04-06T01:31:44.606Z,13.79
2024-04-06T01:32:44.529Z,13.79
2024-04-06T01:33:44.641Z,13.79
2024-04-06T01:34:44.474Z,13.77
2024-04-06T01:35:44.899Z,13.77
2024-04-06T01:36:44.481Z,13.75
2024-04-06T01:37:48.184Z,13.74
2024-04-06T01:38:44.438Z,13.75
2024-04-06T01:39:44.464Z,13.75
2024-04-06T01:40:44.445Z,13.72
2024-04-06T01:41:44.870Z,13.70
2024-04-06T01:42:44.415Z,13.72
2024-04-06T01:43:44.389Z,13.70
2024-04-06T01:44:44.451Z,13.70
2024-04-06T01:45:44.366Z,13.68
2024-04-06T01:46:44.377Z,13.68
2024-04-06T01:47:44.776Z,13.68
2024-04-06T01:48:44.341Z,13.68
2024-04-06T01:49:44.304Z,13.68
2024-04-06T01:50:44.308Z,13.68
2024-04-06T01:51:44.308Z,13.67
2024-04-06T01:52:44.719Z,13.68
2024-04-06T01:53:44.274Z,13.68
2024-04-06T01:54:44.265Z,13.65
2024-04-06T01:55:44.284Z,13.67
2024-04-06T01:56:44.202Z,13.67
2024-04-06T01:57:44.243Z,13.65
2024-04-06T01:58:44.612Z,13.65
2024-04-06T01:59:44.153Z,13.63
2024-04-06T02:00:44.194Z,13.63
2024-04-06T02:01:44.147Z,13.65
2024-04-06T02:02:45.934Z,13.63
2024-04-06T02:03:44.149Z,13.63
2024-04-06T02:04:44.531Z,13.63
2024-04-06T02:05:44.127Z,13.63
2024-04-06T02:06:44.104Z,13.62
2024-04-06T02:07:44.230Z,13.62
2024-04-06T02:08:44.130Z,13.62
2024-04-06T02:09:44.448Z,13.60
2024-04-06T02:10:44.079Z,13.62
2024-04-06T02:11:44.056Z,13.59
2024-04-06T02:12:44.017Z,13.59
2024-04-06T02:13:44.046Z,13.59
2024-04-06T02:14:43.999Z,13.59
2024-04-06T02:15:44.382Z,13.57
2024-04-06T02:16:43.995Z,13.56
2024-04-06T02:17:43.931Z,13.56
2024-04-06T02:18:43.919Z,13.54
2024-04-06T02:19:43.945Z,13.53
2024-04-06T02:20:44.368Z,13.52
2024-04-06T02:21:43.889Z,13.50
2024-04-06T02:22:43.893Z,13.50
2024-04-06T02:23:43.893Z,13.50
2024-04-06T02:24:43.960Z,13.49
2024-04-06T02:25:44.263Z,13.49
2024-04-06T02:26:43.821Z,13.50
2024-04-06T02:27:43.832Z,13.50
2024-04-06T02:28:43.788Z,13.53
2024-04-06T02:29:43.802Z,13.50
2024-04-06T02:30:44.220Z,13.52
2024-04-06T02:31:43.750Z,13.50
2024-04-06T02:32:43.747Z,13.52
2024-04-06T02:33:43.758Z,13.50
2024-04-06T02:34:43.731Z,13.53
2024-04-06T02:35:43.754Z,13.53
2024-04-06T02:36:44.099Z,13.52
2024-04-06T02:37:43.687Z,13.50
2024-04-06T02:38:43.693Z,13.52
2024-04-06T02:39:43.723Z,13.53
2024-04-06T02:40:43.695Z,13.54
2024-04-06T02:41:44.036Z,13.56
2024-04-06T02:42:43.621Z,13.56
2024-04-06T02:43:43.603Z,13.56
2024-04-06T02:44:43.594Z,13.56
2024-04-06T02:45:43.635Z,13.56
2024-04-06T02:46:43.664Z,13.57
2024-04-06T02:47:43.955Z,13.57
2024-04-06T02:48:43.543Z,13.57
2024-04-06T02:49:43.542Z,13.56
2024-04-06T02:50:43.674Z,13.57
2024-04-06T02:51:43.591Z,13.59
2024-04-06T02:52:44.144Z,13.59
2024-04-06T02:53:43.860Z,13.57
2024-04-06T02:54:43.565Z,13.56
2024-04-06T02:55:43.632Z,13.56
2024-04-06T02:56:43.491Z,13.56
2024-04-06T02:57:43.574Z,13.54
2024-04-06T02:58:43.840Z,13.54
2024-04-06T02:59:43.434Z,13.56
2024-04-06T03:00:43.381Z,13.56
2024-04-06T03:01:43.429Z,13.54
2024-04-06T03:02:43.346Z,13.53
2024-04-06T03:03:43.752Z,13.52
2024-04-06T03:04:43.372Z,13.52
2024-04-06T03:05:43.313Z,13.50
2024-04-06T03:06:43.336Z,13.50
2024-04-06T03:07:43.291Z,13.49
2024-04-06T03:08:43.278Z,13.47
2024-04-06T03:09:43.805Z,13.47
2024-04-06T03:10:43.272Z,13.47
2024-04-06T03:11:43.265Z,13.46
2024-04-06T03:12:43.228Z,13.47
2024-04-06T03:13:43.217Z,13.47
2024-04-06T03:14:43.259Z,13.49
2024-04-06T03:15:43.768Z,13.49
2024-04-06T03:16:43.215Z,13.47
2024-04-06T03:17:43.167Z,13.47
2024-04-06T03:18:43.152Z,13.47
2024-04-06T03:19:43.144Z,13.46
2024-04-06T03:20:43.137Z,13.46
2024-04-06T03:21:43.816Z,13.44
2024-04-06T03:22:43.122Z,13.44
2024-04-06T03:23:43.094Z,13.46
2024-04-06T03:24:43.086Z,13.46
2024-04-06T03:25:43.626Z,13.46
2024-04-06T03:26:43.714Z,13.46
2024-04-06T03:27:43.147Z,13.44
2024-04-06T03:28:43.028Z,13.46
2024-04-06T03:29:43.017Z,13.46
2024-04-06T03:30:42.987Z,13.46
2024-04-06T03:31:43.035Z,13.47
2024-04-06T03:32:43.599Z,13.46
2024-04-06T03:33:42.939Z,13.47
2024-04-06T03:34:42.950Z,13.46
2024-04-06T03:35:42.942Z,13.46
2024-04-06T03:36:42.913Z,13.46
2024-04-06T03:37:43.407Z,13.46
2024-04-06T03:38:42.874Z,13.44
2024-04-06T03:39:42.882Z,13.44
2024-04-06T03:40:42.872Z,13.46
2024-04-06T03:41:42.894Z,13.42
2024-04-06T03:42:42.863Z,13.44
2024-04-06T03:43:43.894Z,13.42
2024-04-06T03:44:42.872Z,13.44
2024-04-06T03:45:42.806Z,13.39
2024-04-06T03:46:42.810Z,13.42
2024-04-06T03:47:42.758Z,13.42
2024-04-06T03:48:42.801Z,13.41
2024-04-06T03:49:43.195Z,13.41
2024-04-06T03:50:42.730Z,13.41
2024-04-06T03:51:42.717Z,13.39
2024-04-06T03:52:42.720Z,13.41
2024-04-06T03:53:42.703Z,13.39
2024-04-06T03:54:42.689Z,13.38
2024-04-06T03:55:43.083Z,13.38
2024-04-06T03:56:42.815Z,13.37
2024-04-06T03:57:42.647Z,13.35
2024-04-06T03:58:42.603Z,13.35
2024-04-06T03:59:42.618Z,13.33
2024-04-06T04:00:43.028Z,13.35
2024-04-06T04:01:42.615Z,13.31
2024-04-06T04:02:42.615Z,13.33
2024-04-06T04:03:42.632Z,13.31
2024-04-06T04:04:42.553Z,13.31
2024-04-06T04:05:42.938Z,13.30
2024-04-06T04:06:42.606Z,13.30
2024-04-06T04:07:42.545Z,13.30
2024-04-06T04:08:42.502Z,13.28
2024-04-06T04:09:42.470Z,13.28
2024-04-06T04:10:42.481Z,13.27
2024-04-06T04:11:42.981Z,13.25
2024-04-06T04:12:42.483Z,13.25
2024-04-06T04:13:42.414Z,13.23
2024-04-06T04:14:42.412Z,13.23
2024-04-06T04:15:42.405Z,13.23
2024-04-06T04:16:42.813Z,13.23
2024-04-06T04:17:42.438Z,13.23
2024-04-06T04:18:42.380Z,13.22
2024-04-06T04:19:42.379Z,13.23
2024-04-06T04:20:42.345Z,13.20
2024-04-06T04:21:42.299Z,13.20
2024-04-06T04:22:42.722Z,13.19
2024-04-06T04:23:42.363Z,13.19
2024-04-06T04:24:42.310Z,13.18
2024-04-06T04:25:42.283Z,13.18
2024-04-06T04:26:42.265Z,13.16
2024-04-06T04:27:42.692Z,13.18
2024-04-06T04:28:42.356Z,13.20
2024-04-06T04:29:42.339Z,13.18
2024-04-06T04:30:42.210Z,13.18
2024-04-06T04:31:42.210Z,13.19
2024-04-06T04:32:42.293Z,13.18
2024-04-06T04:33:42.638Z,13.16
2024-04-06T04:34:42.243Z,13.19
2024-04-06T04:35:42.188Z,13.18
2024-04-06T04:36:42.150Z,13.18
2024-04-06T04:37:42.136Z,13.16
2024-04-06T04:38:42.530Z,13.16
2024-04-06T04:39:42.118Z,13.16
2024-04-06T04:40:42.201Z,13.16
2024-04-06T04:41:42.056Z,13.16
2024-04-06T04:42:42.098Z,13.16
2024-04-06T04:43:42.064Z,13.15
2024-04-06T04:44:46.368Z,13.15
2024-04-06T04:45:42.040Z,13.13
2024-04-06T04:46:42.090Z,13.12
2024-04-06T04:47:42.083Z,13.09
2024-04-06T04:48:42.002Z,13.09
2024-04-06T04:49:42.403Z,13.08
2024-04-06T04:50:41.985Z,13.04
2024-04-06T04:51:42.182Z,13.04
2024-04-06T04:52:41.961Z,13.05
2024-04-06T04:53:41.931Z,13.05
2024-04-06T04:54:41.987Z,13.05
2024-04-06T04:55:42.444Z,13.08
2024-04-06T04:56:41.876Z,13.09
2024-04-06T04:57:41.885Z,13.09
2024-04-06T04:58:41.860Z,13.11
2024-04-06T04:59:41.861Z,13.12
2024-04-06T05:00:42.242Z,13.13
2024-04-06T05:01:41.825Z,13.13
2024-04-06T05:02:41.854Z,13.18
2024-04-06T05:03:41.833Z,13.18
2024-04-06T05:04:41.768Z,13.19
2024-04-06T05:05:41.763Z,13.19
2024-04-06T05:06:42.185Z,13.19
2024-04-06T05:07:41.718Z,13.18
2024-04-06T05:08:41.832Z,13.16
2024-04-06T05:09:41.864Z,13.16
2024-04-06T05:10:41.726Z,13.18
2024-04-06T05:11:41.688Z,13.15
2024-04-06T05:12:42.074Z,13.16
2024-04-06T05:13:41.673Z,13.15
2024-04-06T05:14:41.730Z,13.13
2024-04-06T05:15:41.631Z,13.12
2024-04-06T05:16:41.609Z,13.09
2024-04-06T05:17:42.047Z,13.08
2024-04-06T05:18:41.600Z,13.05
2024-04-06T05:19:41.582Z,13.05
2024-04-06T05:20:41.544Z,13.05
2024-04-06T05:21:41.560Z,13.08
2024-04-06T05:22:41.953Z,13.08
2024-04-06T05:23:41.516Z,13.11
2024-04-06T05:24:41.512Z,13.11
2024-04-06T05:25:41.496Z,13.12
2024-04-06T05:26:41.524Z,13.11
2024-04-06T05:27:42.712Z,13.12
2024-04-06T05:28:41.453Z,13.13
2024-04-06T05:29:41.439Z,13.13
2024-04-06T05:30:41.772Z,13.15
2024-04-06T05:31:41.488Z,13.15
2024-04-06T05:32:41.432Z,13.18
2024-04-06T05:33:41.828Z,13.19
2024-04-06T05:34:41.433Z,13.19
2024-04-06T05:35:41.388Z,13.22
2024-04-06T05:36:41.342Z,13.22
2024-04-06T05:37:41.358Z,13.22
2024-04-06T05:38:41.717Z,13.23
2024-04-06T05:39:41.370Z,13.27
2024-04-06T05:40:41.332Z,13.31
2024-04-06T05:41:41.282Z,13.33
2024-04-06T05:42:41.337Z,13.35
2024-04-06T05:43:41.758Z,13.37
2024-04-06T05:44:41.260Z,13.37
2024-04-06T05:45:41.218Z,13.38
2024-04-06T05:46:41.214Z,13.39
2024-04-06T05:47:41.258Z,13.39
2024-04-06T05:48:41.178Z,13.41
2024-04-06T05:49:41.648Z,13.42
2024-04-06T05:50:41.175Z,13.41
2024-04-06T05:51:41.133Z,13.42
2024-04-06T05:52:41.158Z,13.42
2024-04-06T05:53:41.118Z,13.44
2024-04-06T05:54:41.623Z,13.46
2024-04-06T05:55:41.239Z,13.46
2024-04-06T05:56:41.097Z,13.46
2024-04-06T05:57:41.115Z,13.50
2024-04-06T05:58:41.090Z,13.50
2024-04-06T05:59:41.089Z,13.53
2024-04-06T06:00:41.544Z,13.53
2024-04-06T06:01:41.681Z,13.54
2024-04-06T06:02:41.089Z,13.59
2024-04-06T06:03:41.004Z,13.60
2024-04-06T06:04:41.009Z,13.65
2024-04-06T06:05:41.521Z,13.67
2024-04-06T06:06:41.127Z,13.70
2024-04-06T06:07:40.915Z,13.71
2024-04-06T06:08:40.937Z,13.72
2024-04-06T06:09:40.940Z,13.74
2024-04-06T06:10:40.916Z,13.77
2024-04-06T06:11:41.389Z,13.78
2024-04-06T06:12:41.238Z,13.79
2024-04-06T06:13:40.896Z,13.83
2024-04-06T06:14:40.862Z,13.81
2024-04-06T06:15:40.849Z,13.83
2024-04-06T06:17:08.970Z,13.81
2024-04-06T06:17:41.812Z,13.79
2024-04-06T06:18:40.842Z,13.78
2024-04-06T06:19:40.814Z,13.81
2024-04-06T06:20:40.795Z,13.83
2024-04-06T06:21:43.206Z,13.85
2024-04-06T06:22:41.158Z,13.87
2024-04-06T06:23:40.764Z,13.90
2024-04-06T06:24:40.707Z,13.93
2024-04-06T06:25:40.734Z,13.96
2024-04-06T06:26:40.696Z,14.00
2024-04-06T06:27:42.756Z,14.00
2024-04-06T06:28:40.712Z,14.04
2024-04-06T06:29:40.663Z,14.04
2024-04-06T06:30:40.658Z,14.08
2024-04-06T06:31:40.657Z,14.10
2024-04-06T06:32:41.064Z,14.11
2024-04-06T06:33:40.634Z,14.11
2024-04-06T06:34:40.657Z,14.12
2024-04-06T06:40:41.330Z,14.11
2024-04-06T06:40:41.660Z,14.17
2024-04-06T06:41:43.138Z,14.18
2024-04-06T06:42:40.900Z,14.22
2024-04-06T06:43:40.455Z,14.28
2024-04-06T06:44:40.506Z,14.28
2024-04-06T06:45:40.490Z,14.28
2024-04-06T06:46:40.485Z,14.29
2024-04-06T06:47:41.859Z,14.30
2024-04-06T06:48:40.407Z,14.30
2024-04-06T06:49:40.429Z,14.32
2024-04-06T06:50:40.519Z,14.33
2024-04-06T06:51:40.479Z,14.37
2024-04-06T06:52:40.843Z,14.41
2024-04-06T06:53:40.459Z,14.44
2024-04-06T06:54:42.610Z,14.47
2024-04-06T06:55:42.793Z,14.50
2024-04-06T06:56:40.345Z,14.54
2024-04-06T06:57:40.385Z,14.54
2024-04-06T06:58:40.745Z,14.58
2024-04-06T07:00:40.379Z,14.63
2024-04-06T07:01:40.286Z,14.65
2024-04-06T07:02:40.273Z,14.68
2024-04-06T07:03:40.265Z,14.66
2024-04-06T07:04:40.646Z,14.68
2024-04-06T07:05:40.217Z,14.68
2024-04-06T07:07:40.175Z,14.70
2024-04-06T07:08:40.153Z,14.69
2024-04-06T07:09:40.572Z,14.70
2024-04-06T07:10:40.246Z,14.72
2024-04-06T07:11:43.987Z,14.72
2024-04-06T07:12:40.111Z,14.73
2024-04-06T07:13:40.080Z,14.77
2024-04-06T07:14:40.455Z,14.79
2024-04-06T07:15:40.106Z,14.81
2024-04-06T07:16:40.134Z,14.85
2024-04-06T07:17:40.048Z,14.89
2024-04-06T07:18:40.018Z,14.88
2024-04-06T07:19:40.077Z,14.91
2024-04-06T07:20:40.431Z,14.97
2024-04-06T07:21:39.970Z,15.02
2024-04-06T07:22:40.007Z,15.09
2024-04-06T07:23:39.993Z,15.14
2024-04-06T07:24:40.074Z,15.18
2024-04-06T07:25:39.999Z,15.25
2024-04-06T07:26:40.335Z,15.31
2024-04-06T07:27:39.904Z,15.40
2024-04-06T07:28:39.903Z,15.46
2024-04-06T07:29:39.991Z,15.52
2024-04-06T07:30:39.946Z,15.59
2024-04-06T07:31:40.292Z,15.70
2024-04-06T07:32:39.858Z,15.79
2024-04-06T07:33:39.873Z,15.88
2024-04-06T07:34:39.860Z,15.95
2024-04-06T07:35:39.831Z,16.02
2024-04-06T07:36:40.263Z,16.09
2024-04-06T07:37:39.790Z,16.15
2024-04-06T07:39:39.768Z,16.24
2024-04-06T07:40:39.776Z,16.32
2024-04-06T07:41:39.751Z,16.36
2024-04-06T07:42:40.197Z,16.35
2024-04-06T07:43:39.746Z,16.33
2024-04-06T07:44:39.737Z,16.32
2024-04-06T07:45:39.684Z,16.32
2024-04-06T07:46:39.703Z,16.36
2024-04-06T07:47:40.054Z,16.42
2024-04-06T07:48:39.638Z,16.54
2024-04-06T07:49:39.624Z,16.60
2024-04-06T07:50:39.631Z,16.65
2024-04-06T07:51:39.645Z,16.76
2024-04-06T07:52:40.017Z,16.86
2024-04-06T07:53:40.279Z,16.91
2024-04-06T07:54:39.562Z,17.04
2024-04-06T07:55:39.588Z,17.11
2024-04-06T07:56:39.562Z,17.23
2024-04-06T07:57:39.559Z,17.31
2024-04-06T07:58:39.952Z,17.38
2024-04-06T07:59:39.479Z,17.45
2024-04-06T08:00:39.502Z,17.49
2024-04-06T08:01:39.463Z,17.57
2024-04-06T08:02:39.482Z,17.65
2024-04-06T08:03:39.845Z,17.72
2024-04-06T08:04:39.459Z,17.79
2024-04-06T08:05:39.452Z,17.86
2024-04-06T08:06:39.417Z,17.90
2024-04-06T08:07:39.466Z,17.92
2024-04-06T08:08:39.761Z,17.92
2024-04-06T08:09:39.370Z,17.90
2024-04-06T08:10:39.378Z,17.92
2024-04-06T08:11:39.326Z,17.95
2024-04-06T08:12:39.554Z,18.01
2024-04-06T08:13:39.721Z,18.07
2024-04-06T08:14:39.295Z,18.13
2024-04-06T08:15:39.320Z,18.20
2024-04-06T08:16:39.450Z,18.23
2024-04-06T08:17:39.270Z,18.29
2024-04-06T08:18:39.252Z,18.37
2024-04-06T08:19:39.615Z,18.41
2024-04-06T08:20:39.240Z,18.55
2024-04-06T08:21:39.218Z,18.66
2024-04-06T08:22:39.278Z,18.78
2024-04-06T08:23:39.186Z,18.89
2024-04-06T08:24:39.163Z,18.92
2024-04-06T08:25:39.548Z,18.86
2024-04-06T08:26:39.132Z,18.84
2024-04-06T08:27:39.168Z,18.88
2024-04-06T08:28:41.595Z,18.92
2024-04-06T08:29:39.123Z,18.86
2024-04-06T08:30:39.570Z,18.75
2024-04-06T08:31:39.084Z,18.68
2024-04-06T08:32:39.131Z,18.62
2024-04-06T08:33:39.754Z,18.70
2024-04-06T08:34:39.009Z,18.70
2024-04-06T08:35:39.044Z,18.63
2024-04-06T08:36:39.448Z,18.71
2024-04-06T08:37:39.013Z,18.78
2024-04-06T08:38:39.016Z,18.83
2024-04-06T08:39:38.969Z,18.93
2024-04-06T08:40:39.006Z,18.92
2024-04-06T08:41:38.943Z,18.90
2024-04-06T08:42:39.350Z,18.96
2024-04-06T08:43:38.954Z,18.98
2024-04-06T08:44:38.955Z,19.02
2024-04-06T08:45:38.987Z,19.09
2024-04-06T08:46:38.889Z,19.14
2024-04-06T08:47:39.284Z,19.16
2024-04-06T08:48:38.879Z,19.30
2024-04-06T08:49:39.005Z,19.45
2024-04-06T08:50:39.505Z,19.51
2024-04-06T08:51:38.842Z,19.51
2024-04-06T08:52:39.236Z,19.52
2024-04-06T08:53:38.934Z,19.56
2024-04-06T08:54:38.796Z,19.67
2024-04-06T08:55:38.816Z,19.79
2024-04-06T08:56:38.795Z,19.81
2024-04-06T08:57:39.294Z,19.81
2024-04-06T08:58:38.747Z,19.79
2024-04-06T08:59:38.722Z,19.81
2024-04-06T09:00:38.769Z,19.84
2024-04-06T09:01:38.752Z,19.88
2024-04-06T09:02:38.846Z,19.91
2024-04-06T09:03:39.166Z,19.92
2024-04-06T09:04:38.766Z,20.06
2024-04-06T09:05:38.617Z,20.03
2024-04-06T09:06:38.650Z,20.09
2024-04-06T09:07:38.708Z,20.02
2024-04-06T09:08:39.127Z,19.81
2024-04-06T09:09:38.598Z,19.81
2024-04-06T09:10:38.553Z,20.00
2024-04-06T09:11:38.575Z,20.19
2024-04-06T09:12:38.587Z,20.26
2024-04-06T09:13:39.086Z,20.37
2024-04-06T09:14:38.534Z,20.43
2024-04-06T09:15:38.481Z,20.60
2024-04-06T09:16:38.615Z,20.70
2024-04-06T09:17:38.548Z,20.47
2024-04-06T09:18:38.470Z,20.25
2024-04-06T09:19:38.949Z,20.36
2024-04-06T09:20:38.516Z,20.44
2024-04-06T09:21:38.413Z,20.50
2024-04-06T09:22:38.439Z,20.50
2024-04-06T09:23:38.404Z,20.55
2024-04-06T09:24:38.873Z,20.56
2024-04-06T09:25:38.377Z,20.58
2024-04-06T09:26:38.406Z,20.52
2024-04-06T09:27:38.401Z,20.51
2024-04-06T09:28:38.367Z,20.58
2024-04-06T09:29:38.824Z,20.70
2024-04-06T09:30:38.448Z,20.82
2024-04-06T09:31:38.342Z,20.96
2024-04-06T09:32:38.335Z,21.05
2024-04-06T09:33:38.294Z,21.11
2024-04-06T09:34:38.748Z,21.18
2024-04-06T09:35:39.004Z,21.20
2024-04-06T09:36:38.246Z,21.12
2024-04-06T09:37:38.277Z,21.03
2024-04-06T09:38:38.270Z,21.00
2024-04-06T09:39:38.681Z,21.02
2024-04-06T09:40:38.253Z,21.03
2024-04-06T09:41:38.318Z,20.99
2024-04-06T09:42:38.252Z,21.03
2024-04-06T09:43:38.157Z,21.09
2024-04-06T09:44:38.629Z,21.00
2024-04-06T09:45:38.181Z,21.06
2024-04-06T09:46:38.134Z,21.12
2024-04-06T09:47:38.254Z,21.21
2024-04-06T09:48:38.131Z,21.27
2024-04-06T09:49:38.104Z,21.35
2024-04-06T09:50:38.498Z,21.25
2024-04-06T09:51:38.183Z,21.06
2024-04-06T09:52:38.086Z,21.06
2024-04-06T09:53:38.159Z,21.02
2024-04-06T09:54:38.066Z,21.03
2024-04-06T09:55:38.513Z,21.05
2024-04-06T09:56:38.020Z,20.95
2024-04-06T09:57:38.015Z,20.93
2024-04-06T09:58:38.146Z,20.99
2024-04-06T09:59:38.065Z,21.11
2024-04-06T10:00:38.002Z,21.09
2024-04-06T10:01:38.344Z,20.95
2024-04-06T10:02:37.905Z,20.85
2024-04-06T10:03:37.946Z,20.90
2024-04-06T10:04:39.956Z,21.15
2024-04-06T10:05:37.869Z,21.36
2024-04-06T10:06:37.847Z,21.61
2024-04-06T10:07:38.315Z,21.89
2024-04-06T10:08:37.868Z,22.13
2024-04-06T10:09:37.845Z,22.25
2024-04-06T10:10:37.858Z,22.44
2024-04-06T10:11:37.778Z,22.55
2024-04-06T10:12:38.443Z,22.69
2024-04-06T10:13:37.769Z,22.72
2024-04-06T10:14:37.788Z,22.65
2024-04-06T10:15:37.797Z,22.53
2024-04-06T10:16:37.738Z,22.54
2024-04-06T10:17:37.726Z,22.69
2024-04-06T10:18:38.141Z,22.76
2024-04-06T10:19:37.721Z,22.83
2024-04-06T10:20:37.760Z,22.84
2024-04-06T10:21:37.676Z,22.70
2024-04-06T10:22:37.677Z,22.68
2024-04-06T10:23:37.641Z,22.70
2024-04-06T10:24:38.761Z,22.72
2024-04-06T10:25:37.641Z,22.80
2024-04-06T10:26:37.683Z,22.99
2024-04-06T10:27:37.671Z,23.27
2024-04-06T10:28:37.578Z,23.06
2024-04-06T10:29:37.989Z,22.88
2024-04-06T10:30:37.606Z,22.96
2024-04-06T10:31:42.665Z,23.10
2024-04-06T10:32:39.036Z,23.15
2024-04-06T10:33:37.609Z,23.05
2024-04-06T10:34:45.960Z,22.90
2024-04-06T10:35:39.481Z,23.06
2024-04-06T10:36:37.538Z,23.10
2024-04-06T10:37:37.514Z,22.83
2024-04-06T10:38:37.453Z,22.69
2024-04-06T10:39:37.412Z,22.99
2024-04-06T10:40:37.594Z,23.21
2024-04-06T10:41:37.825Z,23.25
2024-04-06T10:42:37.383Z,23.40
2024-04-06T10:43:37.579Z,23.61
2024-04-06T10:44:37.382Z,23.76
2024-04-06T10:45:37.668Z,23.91
2024-04-06T10:46:37.852Z,24.11
2024-04-06T10:47:37.402Z,24.38
2024-04-06T10:48:37.346Z,24.54
2024-04-06T10:49:37.504Z,24.45
2024-04-06T10:50:37.309Z,24.57
2024-04-06T10:51:37.281Z,24.63
2024-04-06T10:52:37.687Z,24.63
2024-04-06T10:53:37.291Z,24.26
2024-04-06T10:54:38.957Z,23.98
2024-04-06T10:55:37.441Z,24.13
2024-04-06T10:56:37.260Z,24.24
2024-04-06T10:57:37.659Z,24.38
2024-04-06T10:58:37.191Z,24.54
2024-04-06T10:59:37.233Z,24.65
2024-04-06T11:00:38.144Z,24.93
2024-04-06T11:01:37.218Z,25.25
2024-04-06T11:02:37.666Z,25.40
2024-04-06T11:03:37.187Z,25.50
2024-04-06T11:04:37.133Z,25.58
2024-04-06T11:05:37.156Z,25.47
2024-04-06T11:06:38.795Z,25.48
2024-04-06T11:07:37.601Z,25.26
2024-04-06T11:08:37.090Z,25.08
2024-04-06T11:09:37.063Z,25.08
2024-04-06T11:10:37.103Z,25.10
2024-04-06T11:11:37.033Z,24.99
2024-04-06T11:12:39.018Z,24.68
2024-04-06T11:13:37.485Z,24.28
2024-04-06T11:14:37.080Z,24.30
2024-04-06T11:15:36.991Z,24.33
2024-04-06T11:16:37.022Z,24.45
2024-04-06T11:17:37.050Z,24.66
2024-04-06T11:18:37.183Z,24.69
2024-04-06T11:19:37.350Z,24.91
2024-04-06T11:20:37.109Z,25.08
2024-04-06T11:21:36.913Z,25.35
2024-04-06T11:22:36.926Z,25.48
2024-04-06T11:23:37.032Z,25.72
2024-04-06T11:24:38.816Z,26.00
2024-04-06T11:25:37.333Z,26.26
2024-04-06T11:26:36.889Z,26.41
2024-04-06T11:27:36.877Z,26.16
2024-04-06T11:28:36.913Z,25.65
2024-04-06T11:29:37.043Z,25.70
2024-04-06T11:30:37.195Z,25.93
2024-04-06T11:31:36.808Z,25.99
2024-04-06T11:32:36.897Z,26.02
2024-04-06T11:33:36.812Z,26.15
2024-04-06T11:34:36.805Z,26.22
2024-04-06T11:35:37.198Z,26.26
2024-04-06T11:36:36.706Z,26.07
2024-04-06T11:37:36.759Z,25.63
2024-04-06T11:38:36.704Z,25.88
2024-04-06T11:39:36.870Z,26.21
2024-04-06T11:40:37.099Z,26.44
2024-04-06T11:41:36.674Z,26.59
2024-04-06T11:42:36.827Z,26.75
2024-04-06T11:43:36.632Z,26.90
2024-04-06T11:44:36.665Z,26.62
2024-04-06T11:45:36.623Z,26.70
2024-04-06T11:46:37.133Z,26.55
2024-04-06T11:47:36.674Z,26.59
2024-04-06T11:48:36.573Z,26.85
2024-04-06T11:49:36.555Z,27.14
2024-04-06T11:50:36.592Z,27.39
2024-04-06T11:51:37.022Z,27.18
2024-04-06T11:52:36.687Z,27.36
2024-04-06T11:53:36.542Z,27.26
2024-04-06T11:54:36.531Z,27.39
2024-04-06T11:55:36.508Z,27.22
2024-04-06T11:56:36.519Z,27.29
2024-04-06T11:57:36.911Z,27.36
2024-04-06T11:58:36.492Z,27.42
2024-04-06T11:59:36.450Z,27.60
2024-04-06T12:00:36.485Z,27.70
2024-04-06T12:01:36.515Z,27.36
2024-04-06T12:02:36.464Z,26.96
2024-04-06T12:03:36.887Z,26.81
2024-04-06T12:04:36.392Z,26.44
2024-04-06T12:05:36.445Z,26.15
2024-04-06T12:06:36.370Z,26.25
2024-04-06T12:07:36.420Z,25.75
2024-04-06T12:08:36.818Z,25.91
2024-04-06T12:09:36.315Z,25.69
2024-04-06T12:10:36.524Z,25.77
2024-04-06T12:11:36.311Z,25.63
2024-04-06T12:12:36.377Z,25.31
2024-04-06T12:13:36.369Z,24.88
2024-04-06T12:14:36.778Z,24.81
2024-04-06T12:15:36.267Z,24.86
2024-04-06T12:16:36.271Z,25.08
2024-04-06T12:17:36.246Z,25.31
2024-04-06T12:18:36.202Z,25.54
2024-04-06T12:19:36.670Z,25.87
2024-04-06T12:20:36.237Z,25.84
2024-04-06T12:21:36.167Z,26.07
2024-04-06T12:22:36.252Z,26.41
2024-04-06T12:23:36.292Z,26.84
2024-04-06T12:24:36.566Z,27.15
2024-04-06T12:25:36.256Z,27.15
2024-04-06T12:26:36.111Z,27.36
2024-04-06T12:27:36.169Z,27.63
2024-04-06T12:28:36.107Z,27.89
2024-04-06T12:29:36.533Z,28.05
2024-04-06T12:30:36.194Z,28.23
2024-04-06T12:31:36.195Z,28.04
2024-04-06T12:32:36.051Z,27.85
2024-04-06T12:33:36.041Z,27.89
2024-04-06T12:34:36.054Z,28.01
2024-04-06T12:35:36.489Z,28.15
2024-04-06T12:36:36.022Z,28.26
2024-04-06T12:37:35.977Z,28.45
2024-04-06T12:38:35.978Z,28.59
2024-04-06T12:39:35.971Z,28.70
2024-04-06T12:40:36.394Z,28.91
2024-04-06T12:41:35.925Z,29.02
2024-04-06T12:42:36.116Z,29.17
2024-04-06T12:43:35.893Z,29.38
2024-04-06T12:44:35.925Z,29.53
2024-04-06T12:45:35.906Z,29.63
2024-04-06T12:46:36.289Z,29.69
2024-04-06T12:47:36.045Z,29.78
2024-04-06T12:48:35.875Z,29.73
2024-04-06T12:49:35.864Z,29.69
2024-04-06T12:50:35.830Z,29.68
2024-04-06T12:51:35.881Z,29.73
2024-04-06T12:52:36.387Z,29.71
2024-04-06T12:53:35.923Z,29.29
2024-04-06T12:54:35.824Z,29.39
2024-04-06T12:55:35.837Z,29.44
2024-04-06T12:56:35.782Z,29.59
2024-04-06T12:57:36.225Z,29.73
2024-04-06T12:58:36.033Z,29.53
2024-04-06T12:59:35.756Z,29.24